Disclaimer

Please do not use the information listed here in-flight or in-navigation, as they are not provided to us by the airports but are provided by volunteers, so they might be outdated.

Search


Regions


Airport information page

Radio informations:
BEIJING EAST TWR - 118.5 MHz
BEIJING DEL - 121.6 MHz
BEIJING ATIS - 127.6 MHz

Airport informations:
Latitude: 40° 04' 48.40" N
Longitude: 116° 35' 04.40" E
Elevation: 116 feet - 35 meters
Operating hours: N/A
Operating agency: Civil government, landing fees and diplomatic clearance may be required
Timezone: UTC+8
Fuel: N/A

Runway information:
18R/36L - 10499 x 164 feet< - >3200 x 50 meters
18L/36R - 12468 x 197 feet< - >3800 x 60 meters

Recent METARs:
ZBAA 201630Z 08002MPS CAVOK 03/M02 Q1029 NOSIG
ZBAA 201700Z VRB01MPS CAVOK 03/M02 Q1029 NOSIG
ZBAA 201800Z 35001MPS CAVOK 02/M02 Q1029 NOSIG

Airport on the map: